Time;durP1;ratioP1;P1;durP2;ratioP2;P2;SDS_P1;SDS_P2;PMS_P1;PMS_P2;Temp;Humidity;BMP_temperature;BMP_pressure;BME280_temperature;BME280_humidity;BME280_pressure;Samples;Min_cycle;Max_cycle;Signal;HPM_P1;HPM_P2
2021/03/02 00:00:58;;;;;;;2.60;2.07;;;19.50;48.80;;;;;;10287294;28;20287;-24
2021/03/02 00:06:20;;;;;;;3.07;2.57;;;19.50;48.80;;;;;;10294108;28;20197;-24
2021/03/02 00:11:43;;;;;;;2.57;2.30;;;19.50;48.90;;;;;;10358406;28;20223;-24
2021/03/02 00:17:11;;;;;;;2.57;2.10;;;19.40;48.90;;;;;;10321493;28;20203;-24
2021/03/02 00:22:40;;;;;;;2.60;2.00;;;19.50;49.00;;;;;;10335512;28;20228;-24
2021/03/02 00:28:05;;;;;;;2.47;2.27;;;19.40;48.90;;;;;;10336223;28;20202;-25
2021/03/02 00:33:29;;;;;;;2.20;2.00;;;19.50;48.90;;;;;;10336026;28;20223;-24
2021/03/02 00:38:51;;;;;;;2.40;2.20;;;19.50;48.90;;;;;;10341434;28;20215;-24
2021/03/02 00:44:12;;;;;;;2.57;2.07;;;19.40;49.00;;;;;;10361967;28;20655;-24
2021/03/02 00:49:36;;;;;;;2.40;1.80;;;19.40;49.00;;;;;;10375739;28;20715;-25
2021/03/02 00:54:58;;;;;;;3.13;1.87;;;19.40;49.00;;;;;;10374047;28;20214;-24
2021/03/02 01:00:20;;;;;;;2.57;2.20;;;19.40;48.90;;;;;;10374430;28;20195;-24
2021/03/02 01:05:43;;;;;;;2.80;1.97;;;19.40;49.00;;;;;;10374333;28;20222;-25
2021/03/02 01:11:05;;;;;;;3.07;2.30;;;19.40;49.10;;;;;;10374042;28;20229;-24
2021/03/02 01:16:26;;;;;;;4.13;2.50;;;19.40;49.10;;;;;;10372752;28;20248;-23
2021/03/02 01:21:51;;;;;;;3.07;2.07;;;19.40;49.10;;;;;;10372282;28;20218;-24
2021/03/02 01:27:13;;;;;;;2.40;2.07;;;19.40;49.00;;;;;;10344547;28;20581;-24
2021/03/02 01:32:34;;;;;;;5.27;2.20;;;19.30;48.90;;;;;;10333280;28;20242;-25
2021/03/02 01:37:57;;;;;;;3.47;2.40;;;19.30;49.10;;;;;;10333070;28;20206;-24
2021/03/02 01:43:19;;;;;;;2.27;1.70;;;19.30;49.10;;;;;;10333425;28;20227;-24
2021/03/02 01:48:42;;;;;;;3.20;1.93;;;19.30;49.10;;;;;;10332750;28;20192;-24
2021/03/02 01:54:05;;;;;;;2.10;1.60;;;19.30;49.00;;;;;;10332449;28;20222;-24
2021/03/02 01:59:27;;;;;;;3.47;2.10;;;19.30;48.90;;;;;;10332331;28;20230;-25
2021/03/02 02:04:55;;;;;;;2.00;1.80;;;19.30;49.00;;;;;;10332050;28;20254;-25
2021/03/02 02:10:26;;;;;;;2.10;1.90;;;19.30;49.10;;;;;;10331582;28;20207;-24
2021/03/02 02:15:49;;;;;;;2.80;1.93;;;19.30;49.10;;;;;;10321329;28;20220;-25
2021/03/02 02:21:22;;;;;;;1.97;1.70;;;19.30;49.00;;;;;;10324420;28;20269;-25
2021/03/02 02:26:53;;;;;;;2.30;1.80;;;19.30;49.00;;;;;;10331413;28;20680;-26
2021/03/02 02:32:16;;;;;;;2.23;1.73;;;19.30;49.00;;;;;;10330985;28;20610;-24
2021/03/02 02:37:38;;;;;;;3.20;1.67;;;19.20;49.10;;;;;;10330153;28;20208;-25
2021/03/02 02:43:03;;;;;;;1.97;1.70;;;19.20;49.20;;;;;;10330912;28;20224;-25
2021/03/02 02:48:26;;;;;;;2.07;1.80;;;19.30;49.10;;;;;;10331029;28;20685;-25
2021/03/02 02:53:48;;;;;;;1.73;1.63;;;19.30;49.00;;;;;;10331020;28;20233;-24
2021/03/02 02:59:21;;;;;;;2.63;1.60;;;19.30;49.00;;;;;;10330364;28;20257;-24
2021/03/02 03:04:49;;;;;;;1.83;1.70;;;19.20;49.00;;;;;;10329740;28;20226;-23
2021/03/02 03:10:12;;;;;;;2.20;1.83;;;19.20;49.10;;;;;;10329775;28;20225;-25
2021/03/02 03:15:35;;;;;;;2.73;1.53;;;19.20;49.10;;;;;;10329521;28;20273;-24
2021/03/02 03:20:58;;;;;;;1.80;1.70;;;19.20;49.10;;;;;;10329293;28;20226;-24
2021/03/02 03:26:24;;;;;;;1.77;1.50;;;19.20;49.00;;;;;;10306263;23;20232;-26
2021/03/02 03:31:47;;;;;;;2.23;1.50;;;19.20;49.00;;;;;;10291696;28;20215;-25
2021/03/02 03:37:08;;;;;;;2.17;1.60;;;19.10;49.10;;;;;;10249955;28;20621;-25
2021/03/02 03:42:30;;;;;;;2.23;1.90;;;19.10;49.10;;;;;;10249091;28;20695;-25
2021/03/02 03:47:53;;;;;;;1.77;1.67;;;19.20;49.10;;;;;;10250536;28;20549;-26
2021/03/02 03:53:17;;;;;;;2.03;1.60;;;19.20;49.00;;;;;;10249055;28;20384;-27
2021/03/02 03:58:42;;;;;;;2.97;1.83;;;19.20;48.90;;;;;;10249376;28;20204;-24
2021/03/02 04:04:05;;;;;;;1.87;1.60;;;19.20;48.90;;;;;;10251867;28;20216;-24
2021/03/02 04:09:28;;;;;;;2.00;1.70;;;19.20;49.00;;;;;;10250216;29;20600;-25
2021/03/02 04:14:49;;;;;;;2.10;1.70;;;19.10;49.00;;;;;;10246851;28;20227;-22
2021/03/02 04:20:12;;;;;;;1.30;1.20;;;19.20;49.00;;;;;;10246168;28;20556;-24
2021/03/02 04:25:34;;;;;;;1.63;1.40;;;19.20;49.00;;;;;;10244149;29;20224;-26
2021/03/02 04:30:56;;;;;;;2.53;1.73;;;19.20;48.90;;;;;;10248744;28;20303;-24
2021/03/02 04:36:18;;;;;;;1.80;1.70;;;19.10;49.00;;;;;;10248633;28;20729;-25
2021/03/02 04:41:40;;;;;;;2.03;1.83;;;19.20;49.00;;;;;;10247987;29;20686;-25
2021/03/02 04:47:01;;;;;;;2.73;1.90;;;19.30;48.80;;;;;;10248206;29;20211;-25
2021/03/02 04:52:24;;;;;;;2.10;1.90;;;19.30;48.60;;;;;;10247045;28;20465;-24
2021/03/02 04:57:45;;;;;;;2.30;1.97;;;19.40;48.50;;;;;;10248128;29;20612;-25
2021/03/02 05:03:07;;;;;;;2.37;1.83;;;19.40;48.40;;;;;;10242564;28;20217;-25
2021/03/02 05:08:30;;;;;;;2.23;1.90;;;19.50;48.40;;;;;;10254680;29;20204;-26
2021/03/02 05:13:51;;;;;;;1.97;1.77;;;19.50;48.30;;;;;;10254199;28;20260;-26
2021/03/02 05:19:13;;;;;;;2.47;2.10;;;19.50;48.20;;;;;;10253824;28;20204;-25
2021/03/02 05:24:35;;;;;;;2.60;2.00;;;19.60;48.20;;;;;;10253816;28;20256;-26
2021/03/02 05:29:57;;;;;;;2.83;1.90;;;19.50;48.20;;;;;;10254051;28;20212;-24
2021/03/02 05:35:19;;;;;;;2.00;1.80;;;19.50;48.30;;;;;;10254073;28;20224;-26
2021/03/02 05:40:42;;;;;;;2.00;1.80;;;19.60;48.30;;;;;;10253728;29;20193;-25
2021/03/02 05:46:04;;;;;;;2.37;1.80;;;19.60;48.20;;;;;;10250509;28;20220;-25
2021/03/02 05:51:25;;;;;;;2.30;1.80;;;19.60;48.10;;;;;;10251344;28;20220;-24
2021/03/02 05:56:48;;;;;;;2.17;1.97;;;19.60;48.10;;;;;;10255885;28;20220;-26
2021/03/02 06:02:10;;;;;;;2.37;2.17;;;19.50;48.20;;;;;;10253322;28;20204;-26
2021/03/02 06:07:32;;;;;;;1.80;1.70;;;19.50;48.20;;;;;;10246819;28;20667;-26
2021/03/02 06:12:55;;;;;;;2.83;1.70;;;19.60;48.10;;;;;;10248803;28;20232;-25
2021/03/02 06:18:18;;;;;;;2.37;1.87;;;19.60;48.10;;;;;;10254452;28;20206;-26
2021/03/02 06:23:49;;;;;;;2.33;1.70;;;19.70;48.00;;;;;;10251998;28;20714;-24
2021/03/02 06:29:15;;;;;;;2.23;1.90;;;19.80;47.70;;;;;;10251100;28;20252;-25
2021/03/02 06:34:49;;;;;;;6.53;2.30;;;19.90;47.40;;;;;;10246785;28;20228;-24
2021/03/02 06:40:13;;;;;;;4.03;1.80;;;20.00;47.30;;;;;;10249296;28;20208;-26
2021/03/02 06:45:49;;;;;;;3.87;1.97;;;20.00;47.30;;;;;;10246609;28;20216;-24
2021/03/02 06:51:24;;;;;;;2.77;2.07;;;20.00;47.30;;;;;;10248099;28;20224;-23
2021/03/02 06:57:00;;;;;;;2.47;1.97;;;20.00;47.30;;;;;;10246701;28;20231;-26
2021/03/02 07:02:36;;;;;;;2.47;2.00;;;20.10;47.40;;;;;;10254922;28;20227;-26
2021/03/02 07:07:59;;;;;;;3.47;1.90;;;20.20;47.30;;;;;;10249971;29;20212;-26
2021/03/02 07:13:21;;;;;;;1.90;1.70;;;20.20;47.20;;;;;;10250705;28;20219;-24
2021/03/02 07:18:46;;;;;;;2.07;1.43;;;20.20;47.30;;;;;;10254337;28;20200;-25
2021/03/02 07:24:11;;;;;;;2.03;1.70;;;20.30;47.20;;;;;;10244245;28;20231;-25
2021/03/02 07:29:33;;;;;;;2.10;1.87;;;20.30;47.20;;;;;;10248432;28;20199;-26
2021/03/02 07:34:56;;;;;;;2.90;1.70;;;20.40;47.20;;;;;;10249373;28;20227;-24
2021/03/02 07:40:20;;;;;;;1.90;1.43;;;20.30;47.10;;;;;;10242372;28;20557;-24
2021/03/02 07:45:41;;;;;;;1.60;1.40;;;20.40;47.00;;;;;;10248150;28;20216;-25
2021/03/02 07:51:21;;;;;;;2.67;1.80;;;20.50;47.00;;;;;;10279221;28;20219;-25
2021/03/02 07:56:42;;;;;;;1.40;1.30;;;20.50;46.80;;;;;;10277940;28;20688;-26
2021/03/02 08:02:15;;;;;;;2.00;1.43;;;20.50;46.80;;;;;;10247961;28;20192;-25
2021/03/02 08:07:37;;;;;;;1.30;1.20;;;20.50;46.80;;;;;;10255339;28;20581;-25
2021/03/02 08:13:35;;;;;;;2.57;1.50;;;20.50;47.00;;;;;;10252685;28;20718;-24
2021/03/02 08:18:58;;;;;;;1.73;1.53;;;20.50;46.70;;;;;;10252330;28;20287;-24
2021/03/02 08:24:50;;;;;;;1.60;1.43;;;20.60;46.60;;;;;;10250147;28;20224;-24
2021/03/02 08:30:13;;;;;;;3.10;1.37;;;20.70;46.40;;;;;;10250286;29;20227;-24
2021/03/02 08:35:37;;;;;;;1.60;1.37;;;21.00;45.80;;;;;;10271292;28;20224;-26
2021/03/02 08:41:00;;;;;;;2.50;1.60;;;21.50;44.80;;;;;;10283880;28;20196;-26
2021/03/02 08:46:27;;;;;;;1.50;1.40;;;22.30;43.10;;;;;;10255985;28;20216;-24
2021/03/02 08:51:57;;;;;;;1.80;1.50;;;23.40;41.00;;;;;;10292734;28;20719;-23
2021/03/02 08:57:19;;;;;;;2.03;1.67;;;24.20;39.20;;;;;;10254577;28;20204;-26
2021/03/02 09:02:43;;;;;;;2.43;1.93;;;24.60;38.10;;;;;;10245217;28;20224;-26
2021/03/02 09:08:06;;;;;;;1.50;1.30;;;24.40;38.20;;;;;;10281593;28;20571;-24
2021/03/02 09:13:35;;;;;;;1.50;1.20;;;23.70;39.40;;;;;;10252951;28;20283;-25
2021/03/02 09:19:09;;;;;;;1.40;1.30;;;23.00;40.80;;;;;;10251567;28;20196;-26
2021/03/02 09:24:33;;;;;;;1.80;1.63;;;22.50;42.20;;;;;;10333633;23;20454;-25
2021/03/02 09:29:55;;;;;;;1.93;1.40;;;23.00;41.30;;;;;;10479348;28;20524;-25
2021/03/02 09:35:17;;;;;;;2.10;1.20;;;22.30;42.80;;;;;;10441822;28;20228;-25
2021/03/02 09:40:43;;;;;;;1.37;1.27;;;21.90;43.60;;;;;;10414737;28;20564;-25
2021/03/02 09:46:07;;;;;;;1.40;1.30;;;21.70;44.00;;;;;;10413884;28;20279;-26
2021/03/02 09:51:29;;;;;;;1.73;1.40;;;21.50;44.70;;;;;;10411560;28;20222;-26
2021/03/02 09:56:56;;;;;;;1.20;1.10;;;21.20;45.20;;;;;;10395386;28;20588;-26
2021/03/02 10:02:18;;;;;;;1.80;1.37;;;21.10;45.50;;;;;;10392101;28;20194;-26
2021/03/02 10:07:43;;;;;;;1.40;1.30;;;21.00;45.80;;;;;;10408780;28;20201;-25
2021/03/02 10:13:05;;;;;;;1.30;1.20;;;20.90;46.10;;;;;;10412308;28;20284;-25
2021/03/02 10:18:28;;;;;;;1.30;1.20;;;20.90;46.20;;;;;;10413058;28;20225;-25
2021/03/02 10:23:51;;;;;;;1.43;1.30;;;20.90;46.30;;;;;;10410001;28;20603;-25
2021/03/02 10:29:13;;;;;;;1.50;1.20;;;20.80;46.50;;;;;;10377800;28;20872;-25
2021/03/02 10:34:37;;;;;;;1.27;1.17;;;20.80;46.50;;;;;;10412940;28;20209;-26
2021/03/02 10:39:58;;;;;;;2.03;1.40;;;20.70;46.70;;;;;;10409048;28;20205;-26
2021/03/02 10:45:20;;;;;;;1.27;1.17;;;20.70;46.80;;;;;;10411982;28;20219;-25
2021/03/02 10:50:43;;;;;;;1.10;1.00;;;20.80;46.50;;;;;;10411836;28;20237;-25
2021/03/02 10:56:05;;;;;;;2.90;1.40;;;20.90;46.40;;;;;;10408169;28;20228;-25
2021/03/02 11:01:27;;;;;;;1.27;1.17;;;21.00;46.40;;;;;;10409078;28;20223;-25
2021/03/02 11:06:49;;;;;;;1.20;1.10;;;21.00;46.30;;;;;;10419827;28;20650;-25
2021/03/02 11:12:11;;;;;;;2.43;1.20;;;21.00;46.30;;;;;;10401690;28;20277;-25
2021/03/02 11:17:33;;;;;;;1.40;1.10;;;20.90;46.50;;;;;;10408999;28;20691;-25
2021/03/02 11:22:55;;;;;;;2.27;1.40;;;20.80;46.70;;;;;;10409694;28;20193;-25
2021/03/02 11:28:17;;;;;;;1.57;1.13;;;20.80;47.10;;;;;;10410303;28;20197;-25
2021/03/02 11:33:40;;;;;;;1.67;1.30;;;20.70;47.20;;;;;;10408696;28;20236;-25
2021/03/02 11:39:02;;;;;;;1.73;1.10;;;20.70;47.20;;;;;;10402007;28;20660;-25
2021/03/02 11:44:24;;;;;;;4.13;1.10;;;20.70;47.20;;;;;;10409191;28;20209;-25
2021/03/02 11:49:45;;;;;;;2.17;1.03;;;20.70;47.40;;;;;;10408633;28;20201;-25
2021/03/02 11:55:09;;;;;;;1.63;1.13;;;20.60;47.60;;;;;;10406945;28;20221;-25
2021/03/02 12:00:31;;;;;;;1.53;0.97;;;20.60;47.50;;;;;;10409172;28;20576;-25
2021/03/02 12:05:53;;;;;;;1.00;1.00;;;20.60;47.50;;;;;;10371601;28;20290;-25
2021/03/02 12:11:18;;;;;;;1.20;1.10;;;20.50;47.60;;;;;;10411003;28;20214;-25
2021/03/02 12:16:39;;;;;;;1.93;1.20;;;20.50;47.80;;;;;;10416869;28;20237;-25
2021/03/02 12:22:01;;;;;;;1.13;1.10;;;20.40;47.80;;;;;;10416579;28;20709;-25
2021/03/02 12:27:24;;;;;;;1.37;1.03;;;20.50;47.90;;;;;;10419170;28;20229;-24
2021/03/02 12:32:46;;;;;;;1.33;1.13;;;20.50;47.80;;;;;;10402780;28;20221;-25
2021/03/02 12:38:07;;;;;;;1.40;1.10;;;20.50;47.90;;;;;;10416992;28;20197;-25
2021/03/02 12:43:30;;;;;;;1.37;1.03;;;20.50;48.10;;;;;;10415923;28;20213;-24
2021/03/02 12:48:52;;;;;;;1.10;1.00;;;20.50;48.20;;;;;;10414929;28;20591;-25
2021/03/02 12:54:13;;;;;;;1.27;1.17;;;20.50;48.20;;;;;;10399857;28;20228;-26
2021/03/02 12:59:36;;;;;;;1.30;1.20;;;20.50;48.20;;;;;;10416337;28;20198;-25
2021/03/02 13:04:57;;;;;;;2.00;0.93;;;20.40;48.40;;;;;;10415813;28;20217;-26
2021/03/02 13:10:19;;;;;;;1.93;1.20;;;20.40;48.40;;;;;;10416538;28;20221;-26
2021/03/02 13:15:42;;;;;;;1.40;1.20;;;20.40;48.50;;;;;;10414235;28;20275;-25
2021/03/02 13:21:04;;;;;;;2.70;1.37;;;20.40;48.50;;;;;;10414621;28;20273;-26
2021/03/02 13:26:29;;;;;;;2.47;1.40;;;20.40;48.60;;;;;;10412358;28;20239;-25
2021/03/02 13:31:53;;;;;;;2.77;1.40;;;20.40;48.50;;;;;;10414246;28;20231;-25
2021/03/02 13:37:15;;;;;;;3.03;1.33;;;20.40;48.60;;;;;;10405848;28;20240;-24
2021/03/02 13:42:46;;;;;;;2.73;1.60;;;20.40;48.60;;;;;;10412964;28;20205;-25
2021/03/02 13:48:09;;;;;;;2.07;1.23;;;20.40;48.60;;;;;;10412699;28;20270;-25
2021/03/02 13:53:32;;;;;;;2.30;1.57;;;20.50;48.60;;;;;;10412742;28;20699;-25
2021/03/02 13:58:54;;;;;;;1.93;1.27;;;20.50;48.70;;;;;;10414531;28;20197;-25
2021/03/02 14:04:17;;;;;;;1.50;1.20;;;20.50;48.80;;;;;;10402095;28;20248;-23
2021/03/02 14:09:41;;;;;;;2.43;1.20;;;20.50;48.80;;;;;;10409400;28;20209;-25
2021/03/02 14:15:04;;;;;;;1.50;1.40;;;20.50;48.80;;;;;;10412029;28;20250;-25
2021/03/02 14:20:27;;;;;;;1.90;1.40;;;20.40;48.90;;;;;;10404348;28;20663;-25
2021/03/02 14:25:49;;;;;;;1.70;1.40;;;20.40;49.00;;;;;;10421481;28;20714;-25
2021/03/02 14:31:12;;;;;;;2.10;1.20;;;20.50;48.80;;;;;;10432759;28;20236;-25
2021/03/02 14:36:34;;;;;;;2.80;1.47;;;20.70;48.30;;;;;;10408796;28;20592;-23
2021/03/02 14:41:56;;;;;;;2.43;1.60;;;20.90;47.90;;;;;;10409080;28;20309;-25
2021/03/02 14:47:20;;;;;;;3.40;1.60;;;21.00;47.70;;;;;;10405852;28;20212;-24
2021/03/02 14:52:44;;;;;;;1.50;1.40;;;21.00;47.70;;;;;;10397256;28;20209;-23
2021/03/02 14:58:06;;;;;;;1.70;1.50;;;20.90;48.10;;;;;;10428295;28;20604;-25
2021/03/02 15:03:28;;;;;;;1.60;1.50;;;20.80;48.40;;;;;;10416557;28;20272;-25
2021/03/02 15:08:50;;;;;;;4.70;1.77;;;20.70;48.50;;;;;;10409627;28;20534;-23
2021/03/02 15:14:14;;;;;;;3.27;2.00;;;20.70;48.40;;;;;;10396210;28;20507;-25
2021/03/02 15:19:37;;;;;;;2.67;1.70;;;21.60;46.40;;;;;;10422528;28;20193;-25
2021/03/02 15:24:59;;;;;;;4.53;1.80;;;20.90;47.90;;;;;;10428529;28;20304;-24
2021/03/02 15:30:25;;;;;;;4.70;1.67;;;20.80;48.40;;;;;;10450902;28;20213;-25
2021/03/02 15:35:47;;;;;;;3.10;1.83;;;20.70;48.60;;;;;;10438877;22;20232;-25
2021/03/02 15:41:10;;;;;;;4.03;2.00;;;20.60;48.90;;;;;;10404526;28;20201;-27
2021/03/02 15:46:32;;;;;;;1.83;1.67;;;20.60;49.00;;;;;;10366294;28;20229;-26
2021/03/02 15:51:55;;;;;;;2.93;1.97;;;20.60;49.10;;;;;;10367325;28;20678;-26
2021/03/02 15:57:17;;;;;;;2.73;2.00;;;20.70;49.60;;;;;;10368140;28;20222;-25
2021/03/02 16:02:40;;;;;;;4.17;2.10;;;20.60;49.50;;;;;;10368943;28;20238;-26
2021/03/02 16:08:03;;;;;;;3.33;2.40;;;20.60;49.50;;;;;;10368272;28;20218;-26
2021/03/02 16:13:26;;;;;;;4.20;2.30;;;20.60;50.10;;;;;;10364681;28;20601;-26
2021/03/02 16:18:51;;;;;;;2.90;1.97;;;20.90;49.20;;;;;;10367725;28;20202;-27
2021/03/02 16:24:14;;;;;;;4.87;2.27;;;20.90;48.80;;;;;;10374606;28;20226;-26
2021/03/02 16:29:37;;;;;;;3.30;2.37;;;21.00;48.90;;;;;;10367667;28;20205;-27
2021/03/02 16:35:02;;;;;;;4.30;2.10;;;21.00;48.70;;;;;;10367195;28;20226;-26
2021/03/02 16:40:26;;;;;;;4.17;2.10;;;21.10;48.70;;;;;;10383262;28;20197;-24
2021/03/02 16:45:48;;;;;;;3.30;2.13;;;21.00;48.70;;;;;;10366769;28;20224;-28
2021/03/02 16:51:18;;;;;;;2.67;2.07;;;21.00;48.80;;;;;;10355159;28;20714;-27
2021/03/02 16:56:48;;;;;;;4.70;2.13;;;21.00;48.80;;;;;;10356293;28;20223;-24
2021/03/02 17:02:16;;;;;;;4.47;2.40;;;21.10;48.80;;;;;;10367812;28;20190;-25
2021/03/02 17:07:37;;;;;;;2.90;2.03;;;21.00;48.80;;;;;;10370748;28;20282;-28
2021/03/02 17:12:59;;;;;;;2.63;2.07;;;20.80;49.30;;;;;;10376093;28;20228;-27
2021/03/02 17:18:21;;;;;;;3.67;2.27;;;20.70;49.50;;;;;;10375611;28;20198;-27
2021/03/02 17:23:43;;;;;;;2.73;2.10;;;20.70;49.50;;;;;;10374732;28;20228;-27
2021/03/02 17:29:05;;;;;;;2.87;2.53;;;20.70;49.60;;;;;;10365495;28;20198;-27
2021/03/02 17:34:27;;;;;;;2.77;2.30;;;20.70;49.70;;;;;;10382016;28;20228;-26
2021/03/02 17:39:49;;;;;;;2.60;2.40;;;20.60;49.70;;;;;;10377156;28;20206;-26
2021/03/02 17:45:12;;;;;;;4.03;2.40;;;20.60;49.90;;;;;;10374490;28;20217;-26
2021/03/02 17:50:35;;;;;;;5.17;2.33;;;20.50;49.80;;;;;;10372994;28;20285;-26
2021/03/02 17:55:56;;;;;;;4.30;2.13;;;20.60;50.00;;;;;;10407033;28;20236;-25
2021/03/02 18:01:18;;;;;;;3.67;2.40;;;20.60;49.90;;;;;;10368406;28;20843;-26
2021/03/02 18:07:00;;;;;;;2.40;1.97;;;20.70;49.70;;;;;;10370108;28;20280;-25
2021/03/02 18:12:24;;;;;;;2.97;2.07;;;20.70;49.40;;;;;;10371509;28;20218;-26
2021/03/02 18:17:45;;;;;;;2.60;2.27;;;20.70;49.50;;;;;;10365881;28;20253;-28
2021/03/02 18:23:08;;;;;;;5.20;2.17;;;20.70;49.50;;;;;;10371173;28;20192;-24
2021/03/02 18:28:29;;;;;;;4.17;2.27;;;20.70;50.30;;;;;;10367071;28;20197;-25
2021/03/02 18:33:51;;;;;;;5.60;2.30;;;20.70;49.70;;;;;;10376875;28;21222;-26
2021/03/02 18:39:16;;;;;;;2.40;2.10;;;20.70;49.60;;;;;;10364756;28;20696;-26
2021/03/02 18:44:37;;;;;;;3.73;2.30;;;20.70;49.60;;;;;;10370503;28;20222;-26
2021/03/02 18:49:59;;;;;;;3.77;2.57;;;20.70;49.70;;;;;;10371715;28;20206;-25
2021/03/02 18:55:21;;;;;;;3.70;2.00;;;20.80;49.70;;;;;;10370024;28;20593;-27
2021/03/02 19:00:43;;;;;;;2.43;2.23;;;20.90;49.60;;;;;;10369393;28;20249;-27
2021/03/02 19:06:05;;;;;;;4.20;2.60;;;20.90;49.50;;;;;;10370205;28;20241;-28
2021/03/02 19:11:28;;;;;;;3.20;2.60;;;20.80;49.60;;;;;;10368290;28;20280;-27
2021/03/02 19:16:49;;;;;;;2.87;2.17;;;20.60;49.90;;;;;;10357031;28;20218;-25
2021/03/02 19:22:11;;;;;;;3.80;2.97;;;20.50;50.00;;;;;;10367060;28;20213;-26
2021/03/02 19:27:33;;;;;;;2.77;2.47;;;20.50;50.10;;;;;;10369518;28;20218;-27
2021/03/02 19:32:55;;;;;;;4.07;2.60;;;20.50;50.10;;;;;;10371518;28;20220;-28
2021/03/02 19:38:17;;;;;;;2.60;2.40;;;20.40;50.20;;;;;;10370006;28;20198;-25
2021/03/02 19:43:39;;;;;;;3.40;2.70;;;20.40;49.70;;;;;;10389844;28;20635;-26
2021/03/02 19:49:01;;;;;;;3.93;2.73;;;20.70;49.20;;;;;;10380073;28;20241;-26
2021/03/02 19:54:23;;;;;;;3.00;2.70;;;20.90;48.80;;;;;;10393991;28;20224;-27
2021/03/02 19:59:46;;;;;;;2.67;2.43;;;20.90;48.50;;;;;;10409411;28;20200;-28
2021/03/02 20:05:08;;;;;;;4.33;2.67;;;21.00;48.60;;;;;;10408961;28;20288;-27
2021/03/02 20:10:30;;;;;;;3.70;2.53;;;21.10;48.60;;;;;;10408047;28;20202;-25
2021/03/02 20:15:53;;;;;;;2.90;2.60;;;21.10;48.50;;;;;;10347623;28;20260;-24
2021/03/02 20:21:15;;;;;;;2.70;2.50;;;21.20;48.40;;;;;;10393519;28;20186;-23
2021/03/02 20:26:37;;;;;;;4.07;3.00;;;21.30;48.30;;;;;;10368401;28;20218;-25
2021/03/02 20:31:59;;;;;;;3.23;2.73;;;21.20;48.20;;;;;;10371026;28;20877;-24
2021/03/02 20:37:22;;;;;;;3.20;2.90;;;21.30;48.30;;;;;;10387773;28;20253;-26
2021/03/02 20:42:43;;;;;;;4.10;2.80;;;21.30;48.20;;;;;;10390413;28;20194;-25
2021/03/02 20:48:07;;;;;;;3.37;2.90;;;21.30;48.20;;;;;;10408207;28;20592;-24
2021/03/02 20:53:29;;;;;;;3.00;2.67;;;21.40;48.20;;;;;;10401582;28;20222;-25
2021/03/02 20:58:50;;;;;;;3.03;2.73;;;21.40;48.00;;;;;;10375277;28;20209;-25
2021/03/02 21:04:13;;;;;;;3.03;2.60;;;21.40;48.00;;;;;;10376352;28;20677;-23
2021/03/02 21:09:34;;;;;;;3.03;2.73;;;21.40;48.00;;;;;;10373362;28;20195;-25
2021/03/02 21:14:56;;;;;;;3.10;2.80;;;21.50;48.00;;;;;;10373362;28;20289;-24
2021/03/02 21:20:19;;;;;;;3.00;2.73;;;21.50;47.90;;;;;;10373058;28;20198;-28
2021/03/02 21:25:40;;;;;;;3.50;3.20;;;21.50;47.80;;;;;;10373425;28;20227;-26
2021/03/02 21:31:03;;;;;;;3.30;2.90;;;21.40;48.10;;;;;;10373544;28;20217;-26
2021/03/02 21:36:25;;;;;;;3.60;2.90;;;21.40;48.10;;;;;;10421222;23;20233;-30
2021/03/02 21:41:47;;;;;;;3.20;2.90;;;21.40;48.10;;;;;;10451561;28;20690;-31
2021/03/02 21:47:08;;;;;;;3.23;2.93;;;21.40;48.10;;;;;;10432880;28;20221;-29
2021/03/02 21:52:31;;;;;;;2.87;2.57;;;21.40;48.20;;;;;;10400092;28;20213;-26
2021/03/02 21:57:52;;;;;;;3.63;2.90;;;21.30;48.30;;;;;;10413647;28;20233;-28
2021/03/02 22:03:14;;;;;;;4.27;3.03;;;21.30;48.50;;;;;;10413006;28;20208;-32
2021/03/02 22:08:37;;;;;;;5.20;3.50;;;21.20;48.60;;;;;;10412925;28;20217;-26
2021/03/02 22:13:58;;;;;;;3.90;2.80;;;21.20;48.70;;;;;;10413769;28;20214;-28
2021/03/02 22:19:20;;;;;;;6.63;3.10;;;21.10;48.70;;;;;;10412645;28;20226;-28
2021/03/02 22:24:42;;;;;;;3.27;2.80;;;21.10;48.70;;;;;;10412409;28;20194;-30
2021/03/02 22:30:05;;;;;;;3.57;3.00;;;21.20;48.70;;;;;;10413060;28;20631;-28
2021/03/02 22:35:27;;;;;;;3.60;3.30;;;21.20;48.70;;;;;;10412565;28;20237;-28
2021/03/02 22:40:49;;;;;;;3.40;3.10;;;21.10;48.60;;;;;;10410839;28;20205;-27
2021/03/02 22:46:11;;;;;;;3.20;2.90;;;21.10;48.60;;;;;;10411235;28;20636;-27
2021/03/02 22:51:33;;;;;;;4.10;3.07;;;21.10;48.60;;;;;;10411905;28;20256;-29
2021/03/02 22:56:55;;;;;;;3.77;3.40;;;21.10;48.60;;;;;;10441507;28;20217;-29
2021/03/02 23:02:17;;;;;;;3.90;3.40;;;21.00;48.80;;;;;;10439062;28;20250;-28
2021/03/02 23:07:39;;;;;;;4.00;3.60;;;20.90;48.90;;;;;;10402797;28;20688;-28
2021/03/02 23:13:01;;;;;;;4.60;3.70;;;20.90;49.00;;;;;;10410821;28;20236;-30
2021/03/02 23:18:23;;;;;;;4.00;3.53;;;20.80;48.90;;;;;;10411368;28;20213;-27
2021/03/02 23:23:45;;;;;;;4.03;3.57;;;20.70;49.00;;;;;;10410613;28;20192;-28
2021/03/02 23:29:07;;;;;;;3.67;3.37;;;20.60;49.20;;;;;;10411023;28;20702;-32
2021/03/02 23:34:29;;;;;;;4.40;3.60;;;20.60;49.30;;;;;;10410836;28;20218;-32
2021/03/02 23:39:51;;;;;;;4.27;3.53;;;20.60;49.20;;;;;;10409949;28;20201;-26
2021/03/02 23:45:14;;;;;;;4.00;3.60;;;20.50;49.30;;;;;;10410200;28;20223;-32
2021/03/02 23:50:35;;;;;;;4.93;4.07;;;20.50;49.40;;;;;;10409792;28;20198;-31
2021/03/02 23:55:57;;;;;;;4.20;3.70;;;20.40;49.50;;;;;;10409872;28;20268;-29
